Terminal Aerodrome Forecast
Issued by NWS

Home | Current Version | Previous Version | Text Only | Print | Product List | Glossary On
Versions: 1 2 3 4 5 6 7 8 9 10 11 12 13 14 15 16 17 18 19 20 21 22 23 24 25 26 27 28 29 30 31 32 33 34 35 36
912
FTUS45 KREV 191128
TAFMMH
TAF
KMMH 191128Z 1912/2012 VRB04KT P6SM FEW001 FEW110 BKN180
     FM191900 13008KT P6SM FEW110 SCT180
     FM200200 25008KT P6SM FEW060 SCT100 SCT180=

USA.gov is the U.S. government's official web portal to all federal, state and local government web resources and services.